createdAt,value
2023-02-12T00:00:12.328Z,7.49
2023-02-12T00:02:38.724Z,7.50
2023-02-12T00:05:05.475Z,7.50
2023-02-12T00:07:32.069Z,7.49
2023-02-12T00:09:58.459Z,7.49
2023-02-12T00:12:24.857Z,7.47
2023-02-12T00:14:51.309Z,7.47
2023-02-12T00:17:17.677Z,7.48
2023-02-12T00:19:44.128Z,7.49
2023-02-12T00:22:10.699Z,7.48
2023-02-12T00:24:37.057Z,7.47
2023-02-12T00:27:03.511Z,7.46
2023-02-12T00:29:30.054Z,7.47
2023-02-12T00:31:56.454Z,7.46
2023-02-12T00:34:22.896Z,7.45
2023-02-12T00:36:49.483Z,7.46
2023-02-12T00:39:15.827Z,7.45
2023-02-12T00:41:42.224Z,7.46
2023-02-12T00:44:08.762Z,7.44
2023-02-12T00:46:35.168Z,7.47
2023-02-12T00:49:01.660Z,7.45
2023-02-12T00:51:28.247Z,7.46
2023-02-12T00:53:54.599Z,7.46
2023-02-12T00:56:20.938Z,7.45
2023-02-12T00:58:47.417Z,7.45
2023-02-12T01:01:13.797Z,7.44
2023-02-12T01:03:40.237Z,7.44
2023-02-12T01:06:06.959Z,7.44
2023-02-12T01:08:33.350Z,7.43
2023-02-12T01:11:01.405Z,7.43
2023-02-12T01:13:28.107Z,7.42
2023-02-12T01:16:06.669Z,7.43
2023-02-12T01:18:33.271Z,7.42
2023-02-12T01:20:59.716Z,7.42
2023-02-12T01:23:26.143Z,7.42
2023-02-12T01:25:53.043Z,7.42
2023-02-12T01:28:19.629Z,7.40
2023-02-12T01:30:46.554Z,7.38
2023-02-12T01:33:12.986Z,7.40
2023-02-12T01:35:39.350Z,7.40
2023-02-12T01:38:05.711Z,7.38
2023-02-12T01:40:32.285Z,7.39
2023-02-12T01:43:01.885Z,7.39
2023-02-12T01:45:28.223Z,7.37
2023-02-12T01:47:54.757Z,7.36
2023-02-12T01:50:21.303Z,7.36
2023-02-12T01:52:53.126Z,7.37
2023-02-12T01:55:19.729Z,7.36
2023-02-12T01:57:46.190Z,7.35
2023-02-12T02:00:21.128Z,7.36
2023-02-12T02:02:49.320Z,7.36
2023-02-12T02:05:18.468Z,7.34
2023-02-12T02:07:44.931Z,7.34
2023-02-12T02:10:11.313Z,7.36
2023-02-12T02:12:56.314Z,7.36
2023-02-12T02:15:22.653Z,7.36
2023-02-12T02:17:53.541Z,7.35
2023-02-12T02:20:39.984Z,7.34
2023-02-12T02:23:09.720Z,7.34
2023-02-12T02:25:55.326Z,7.36
2023-02-12T02:28:41.233Z,7.36
2023-02-12T02:31:10.929Z,7.33
2023-02-12T02:33:40.783Z,7.36
2023-02-12T02:36:13.476Z,7.35
2023-02-12T02:38:51.178Z,7.35
2023-02-12T02:41:38.015Z,7.33
2023-02-12T02:44:08.392Z,7.32
2023-02-12T02:46:37.806Z,7.35
2023-02-12T02:49:09.534Z,7.35
2023-02-12T02:51:43.379Z,7.33
2023-02-12T02:54:13.759Z,7.35
2023-02-12T02:56:41.486Z,7.33
2023-02-12T02:59:11.628Z,7.35
2023-02-12T03:01:44.150Z,7.33
2023-02-12T03:04:32.416Z,7.33
2023-02-12T03:07:03.457Z,7.32
2023-02-12T03:09:37.706Z,7.32
2023-02-12T03:12:09.480Z,7.31
2023-02-12T03:14:41.199Z,7.29
2023-02-12T03:17:14.238Z,7.29
2023-02-12T03:19:49.221Z,7.31
2023-02-12T03:22:25.479Z,7.30
2023-02-12T03:24:55.830Z,7.29
2023-02-12T03:27:29.443Z,7.28
2023-02-12T03:29:55.798Z,7.30
2023-02-12T03:32:34.262Z,7.30
2023-02-12T03:35:12.598Z,7.29
2023-02-12T03:37:42.049Z,7.30
2023-02-12T03:40:16.171Z,7.29
2023-02-12T03:42:53.697Z,7.28
2023-02-12T03:45:42.260Z,7.28
2023-02-12T03:48:08.759Z,7.25
2023-02-12T03:50:54.619Z,7.26
2023-02-12T03:53:21.176Z,7.26
2023-02-12T03:55:49.000Z,7.23
2023-02-12T03:58:18.998Z,7.24
2023-02-12T04:00:45.669Z,7.25
2023-02-12T04:03:12.056Z,7.23
2023-02-12T04:05:38.449Z,7.22
2023-02-12T04:08:07.058Z,7.23
2023-02-12T04:10:48.868Z,7.22
2023-02-12T04:13:28.886Z,7.20
2023-02-12T04:16:13.529Z,7.21
2023-02-12T04:18:47.029Z,7.18
2023-02-12T04:21:26.479Z,7.18
2023-02-12T04:24:11.681Z,7.16
2023-02-12T04:26:41.107Z,7.14
2023-02-12T04:29:22.866Z,7.17
2023-02-12T04:32:04.398Z,7.16
2023-02-12T04:34:38.723Z,7.15
2023-02-12T04:37:48.607Z,7.15
2023-02-12T04:40:16.719Z,7.15
2023-02-12T04:42:50.389Z,7.13
2023-02-12T04:45:24.817Z,7.12
2023-02-12T04:47:51.581Z,7.12
2023-02-12T04:50:18.816Z,7.12
2023-02-12T04:52:45.217Z,7.11
2023-02-12T04:55:11.904Z,7.10
2023-02-12T04:57:38.251Z,7.10
2023-02-12T05:00:06.400Z,7.09
2023-02-12T05:02:35.959Z,7.11
2023-02-12T05:05:02.447Z,7.08
2023-02-12T05:07:28.871Z,7.07
2023-02-12T05:09:55.213Z,7.09
2023-02-12T05:12:21.581Z,7.11
2023-02-12T05:14:47.953Z,7.12
2023-02-12T05:17:14.328Z,7.12
2023-02-12T05:19:40.671Z,7.11
2023-02-12T05:22:07.300Z,7.11
2023-02-12T05:24:33.741Z,7.11
2023-02-12T05:27:00.145Z,7.10
2023-02-12T05:29:26.788Z,7.12
2023-02-12T05:31:53.194Z,7.11
2023-02-12T05:34:20.243Z,7.11
2023-02-12T05:36:46.795Z,7.09
2023-02-12T05:39:13.139Z,7.10
2023-02-12T05:41:39.485Z,7.11
2023-02-12T05:44:06.738Z,7.10
2023-02-12T05:46:33.160Z,7.09
2023-02-12T05:48:59.548Z,7.08
2023-02-12T05:51:26.413Z,7.08
2023-02-12T05:53:57.733Z,7.08
2023-02-12T05:56:31.976Z,7.07
2023-02-12T05:59:03.682Z,7.08
2023-02-12T06:01:32.197Z,7.09
2023-02-12T06:03:59.606Z,7.08
2023-02-12T06:06:27.019Z,7.08
2023-02-12T06:08:53.578Z,7.07
2023-02-12T06:11:20.816Z,7.07
2023-02-12T06:13:47.575Z,7.08
2023-02-12T06:16:20.845Z,7.06
2023-02-12T06:18:47.336Z,7.04
2023-02-12T06:21:13.888Z,7.06
2023-02-12T06:23:40.342Z,7.05
2023-02-12T06:26:06.752Z,7.05
2023-02-12T06:28:33.170Z,7.05
2023-02-12T06:30:59.733Z,7.04
2023-02-12T06:33:26.116Z,7.06
2023-02-12T06:35:52.467Z,7.05
2023-02-12T06:38:18.992Z,7.05
2023-02-12T06:40:45.397Z,7.06
2023-02-12T06:43:11.917Z,7.07
2023-02-12T06:45:38.525Z,7.07
2023-02-12T06:48:05.075Z,7.06
2023-02-12T06:50:31.457Z,7.05
2023-02-12T06:52:59.093Z,7.06
2023-02-12T06:55:25.581Z,7.05
2023-02-12T06:57:51.923Z,7.04
2023-02-12T07:00:18.902Z,7.05
2023-02-12T07:02:45.263Z,7.05
2023-02-12T07:05:11.697Z,7.03
2023-02-12T07:07:38.235Z,7.04
2023-02-12T07:10:04.843Z,7.02
2023-02-12T07:12:33.417Z,7.05
2023-02-12T07:14:59.806Z,7.04
2023-02-12T07:17:26.151Z,7.04
2023-02-12T07:19:52.491Z,7.04
2023-02-12T07:22:19.061Z,7.04
2023-02-12T07:24:45.880Z,7.04
2023-02-12T07:27:12.218Z,7.04
2023-02-12T07:29:38.860Z,7.06
2023-02-12T07:32:05.322Z,7.06
2023-02-12T07:34:31.733Z,7.06
2023-02-12T07:36:58.111Z,7.04
2023-02-12T07:39:24.476Z,7.06
2023-02-12T07:41:50.856Z,7.06
2023-02-12T07:44:17.424Z,7.06
2023-02-12T07:46:48.823Z,7.06
2023-02-12T07:49:20.123Z,7.05
2023-02-12T07:51:46.957Z,7.05
2023-02-12T07:54:13.420Z,7.05
2023-02-12T07:56:41.099Z,7.06
2023-02-12T07:59:10.108Z,7.09
2023-02-12T08:01:37.794Z,7.10
2023-02-12T08:04:06.110Z,7.17
2023-02-12T08:06:33.925Z,7.18
2023-02-12T08:09:01.012Z,7.18
2023-02-12T08:11:28.292Z,7.19
2023-02-12T08:13:55.008Z,7.16
2023-02-12T08:16:22.712Z,7.21
2023-02-12T08:18:49.282Z,7.19
2023-02-12T08:21:18.173Z,7.24
2023-02-12T08:23:44.772Z,7.20
2023-02-12T08:26:15.556Z,7.22
2023-02-12T08:28:43.799Z,7.25
2023-02-12T08:31:13.088Z,7.27
2023-02-12T08:33:39.503Z,7.26
2023-02-12T08:36:09.452Z,7.29
2023-02-12T08:38:36.049Z,7.32
2023-02-12T08:41:07.951Z,7.29
2023-02-12T08:43:34.457Z,7.25
2023-02-12T08:46:05.119Z,7.28
2023-02-12T08:48:31.669Z,7.27
2023-02-12T08:51:06.188Z,7.29
2023-02-12T08:53:32.903Z,7.27
2023-02-12T08:55:59.341Z,7.32
2023-02-12T08:58:25.718Z,7.24
2023-02-12T09:00:52.352Z,7.25
2023-02-12T09:03:18.753Z,7.21
2023-02-12T09:05:45.170Z,7.25
2023-02-12T09:08:11.765Z,7.30
2023-02-12T09:10:41.889Z,7.29
2023-02-12T09:13:08.994Z,7.29
2023-02-12T09:15:44.932Z,7.34
2023-02-12T09:18:12.172Z,7.39
2023-02-12T09:20:39.936Z,7.38
2023-02-12T09:23:10.339Z,7.39
2023-02-12T09:25:45.391Z,7.41
2023-02-12T09:28:12.709Z,7.42
2023-02-12T09:30:39.443Z,7.40
2023-02-12T09:33:06.233Z,7.41
2023-02-12T09:35:36.092Z,7.42
2023-02-12T09:38:03.150Z,7.36
2023-02-12T09:40:52.480Z,7.28
2023-02-12T09:43:25.311Z,7.31
2023-02-12T09:46:02.364Z,7.42
2023-02-12T09:48:44.012Z,7.51
2023-02-12T09:51:11.033Z,7.54
2023-02-12T09:53:43.780Z,7.51
2023-02-12T09:56:13.709Z,7.56
2023-02-12T09:58:47.046Z,7.58
2023-02-12T10:01:14.747Z,7.66
2023-02-12T10:03:41.217Z,7.63
2023-02-12T10:06:09.136Z,7.66
2023-02-12T10:08:41.872Z,7.65
2023-02-12T10:11:33.039Z,7.62
2023-02-12T10:14:22.230Z,7.60
2023-02-12T10:17:03.701Z,7.56
2023-02-12T10:19:35.092Z,7.53
2023-02-12T10:22:01.429Z,7.57
2023-02-12T10:24:30.784Z,7.62
2023-02-12T10:30:50.055Z,7.52
2023-02-12T10:33:19.402Z,7.53
2023-02-12T10:35:49.882Z,7.52
2023-02-12T10:38:20.272Z,7.45
2023-02-12T10:40:46.762Z,7.48
2023-02-12T10:43:13.554Z,7.52
2023-02-12T10:45:40.964Z,7.49
2023-02-12T10:48:07.306Z,7.52
2023-02-12T10:50:50.916Z,7.53
2023-02-12T10:53:24.932Z,7.54
2023-02-12T10:56:14.679Z,7.58
2023-02-12T10:58:50.434Z,7.59
2023-02-12T11:01:36.732Z,7.53
2023-02-12T11:04:21.600Z,7.55
2023-02-12T11:07:07.936Z,7.56
2023-02-12T11:09:40.159Z,7.57
2023-02-12T11:12:13.460Z,7.59
2023-02-12T11:14:39.825Z,7.62
2023-02-12T11:17:06.203Z,7.62
2023-02-12T11:19:34.367Z,7.66
2023-02-12T11:22:10.771Z,7.68
2023-02-12T11:24:37.423Z,7.63
2023-02-12T11:27:13.118Z,7.67
2023-02-12T11:29:39.641Z,7.64
2023-02-12T11:32:08.460Z,7.64
2023-02-12T11:34:35.335Z,7.67
2023-02-12T11:37:01.730Z,7.70
2023-02-12T11:39:30.367Z,7.74
2023-02-12T11:42:01.846Z,7.76
2023-02-12T11:44:36.221Z,7.76
2023-02-12T11:47:24.542Z,7.75
2023-02-12T11:49:54.680Z,7.75
2023-02-12T11:52:25.744Z,7.76
2023-02-12T11:54:56.601Z,7.77
2023-02-12T11:57:47.313Z,7.76
2023-02-12T12:00:32.411Z,7.83
2023-02-12T12:03:04.889Z,7.85
2023-02-12T12:05:35.238Z,7.88
2023-02-12T12:08:04.371Z,7.89
2023-02-12T12:10:44.048Z,7.86
2023-02-12T12:13:14.047Z,7.89
2023-02-12T12:16:01.975Z,7.89
2023-02-12T12:19:00.359Z,7.91
2023-02-12T12:21:34.945Z,7.92
2023-02-12T12:24:03.217Z,7.91
2023-02-12T12:26:31.154Z,7.86
2023-02-12T12:28:59.696Z,7.91
2023-02-12T12:31:32.206Z,7.93
2023-02-12T12:34:16.823Z,7.94
2023-02-12T12:37:04.971Z,7.99
2023-02-12T12:39:55.885Z,8.03
2023-02-12T12:42:34.448Z,8.09
2023-02-12T12:45:32.482Z,8.08
2023-02-12T12:48:32.871Z,8.09
2023-02-12T12:51:11.252Z,8.12
2023-02-12T12:54:18.845Z,8.08
2023-02-12T12:57:03.619Z,8.12
2023-02-12T12:59:54.522Z,8.15
2023-02-12T13:02:54.386Z,8.17
2023-02-12T13:05:37.881Z,8.14
2023-02-12T13:08:19.584Z,8.20
2023-02-12T13:11:02.667Z,8.21
2023-02-12T13:13:43.571Z,8.23
2023-02-12T13:16:41.457Z,8.22
2023-02-12T13:19:20.012Z,8.26
2023-02-12T13:22:01.265Z,8.25
2023-02-12T13:24:55.662Z,8.29
2023-02-12T13:27:24.426Z,8.30
2023-02-12T13:29:58.725Z,8.29
2023-02-12T13:32:28.214Z,8.31
2023-02-12T13:34:55.229Z,8.31
2023-02-12T13:37:28.540Z,8.32
2023-02-12T13:39:54.966Z,8.34
2023-02-12T13:42:45.339Z,8.37
2023-02-12T13:45:20.494Z,8.36
2023-02-12T13:47:58.904Z,8.35
2023-02-12T13:50:35.221Z,8.37
2023-02-12T13:53:36.262Z,8.34
2023-02-12T13:56:17.738Z,8.37
2023-02-12T13:58:49.145Z,8.39
2023-02-12T14:01:35.583Z,8.42
2023-02-12T14:04:31.185Z,8.42
2023-02-12T14:07:02.912Z,8.44
2023-02-12T14:09:47.503Z,8.47
2023-02-12T14:12:28.046Z,8.50
2023-02-12T14:15:07.699Z,8.56
2023-02-12T14:17:34.238Z,8.59
2023-02-12T14:20:25.210Z,8.57
2023-02-12T14:22:51.578Z,8.60
2023-02-12T14:25:23.945Z,8.60
2023-02-12T14:28:05.822Z,8.61
2023-02-12T14:30:40.325Z,8.63
2023-02-12T14:33:07.054Z,8.65
2023-02-12T14:35:34.709Z,8.66
2023-02-12T14:38:15.050Z,8.65
2023-02-12T14:40:47.877Z,8.66
2023-02-12T14:43:31.100Z,8.66
2023-02-12T14:45:59.539Z,8.65
2023-02-12T14:48:57.786Z,8.58
2023-02-12T14:51:36.270Z,8.58
2023-02-12T14:54:04.323Z,8.55
2023-02-12T14:56:30.667Z,8.57
2023-02-12T14:58:57.086Z,8.57
2023-02-12T15:01:27.495Z,8.56
2023-02-12T15:03:54.688Z,8.57
2023-02-12T15:06:33.308Z,8.57
2023-02-12T15:09:10.097Z,8.55
2023-02-12T15:11:43.646Z,8.57
2023-02-12T15:14:15.376Z,8.56
2023-02-12T15:16:59.905Z,8.57
2023-02-12T15:20:02.788Z,8.55
2023-02-12T15:22:35.707Z,8.55
2023-02-12T15:25:22.900Z,8.52
2023-02-12T15:27:49.638Z,8.54
2023-02-12T15:30:26.424Z,8.51
2023-02-12T15:32:55.583Z,8.51
2023-02-12T15:35:23.371Z,8.47
2023-02-12T15:37:49.747Z,8.47
2023-02-12T15:40:16.297Z,8.47
2023-02-12T15:43:01.745Z,8.46
2023-02-12T15:45:33.597Z,8.46
2023-02-12T15:48:10.230Z,8.44
2023-02-12T15:51:00.598Z,8.41
2023-02-12T15:53:30.225Z,8.39
2023-02-12T15:55:58.403Z,8.39
2023-02-12T15:58:38.011Z,8.38
2023-02-12T16:01:05.705Z,8.36
2023-02-12T16:03:34.138Z,8.36
2023-02-12T16:06:13.004Z,8.35
2023-02-12T16:08:50.374Z,8.29
2023-02-12T16:11:19.932Z,8.28
2023-02-12T16:13:48.843Z,8.27
2023-02-12T16:16:15.260Z,8.29
2023-02-12T16:18:41.847Z,8.28
2023-02-12T16:21:17.740Z,8.27
2023-02-12T16:23:45.450Z,8.25
2023-02-12T16:26:18.660Z,8.24
2023-02-12T16:28:48.736Z,8.22
2023-02-12T16:31:15.789Z,8.20
2023-02-12T16:33:45.343Z,8.17
2023-02-12T16:36:24.778Z,8.16
2023-02-12T16:39:01.471Z,8.12
2023-02-12T16:41:32.170Z,8.10
2023-02-12T16:44:01.622Z,8.08
2023-02-12T16:46:35.394Z,8.06
2023-02-12T16:49:01.820Z,8.03
2023-02-12T16:51:30.238Z,8.01
2023-02-12T16:53:58.210Z,8.00
2023-02-12T16:56:26.405Z,7.99
2023-02-12T16:58:57.100Z,7.97
2023-02-12T17:01:28.725Z,7.96
2023-02-12T17:03:55.353Z,7.94
2023-02-12T17:06:23.532Z,7.93
2023-02-12T17:08:50.082Z,7.93
2023-02-12T17:11:17.744Z,7.92
2023-02-12T17:13:45.457Z,7.90
2023-02-12T17:16:14.509Z,7.89
2023-02-12T17:18:48.138Z,7.87
2023-02-12T17:21:25.278Z,7.86
2023-02-12T17:23:54.180Z,7.85
2023-02-12T17:26:21.771Z,7.83
2023-02-12T17:28:48.494Z,7.81
2023-02-12T17:31:14.968Z,7.80
2023-02-12T17:33:41.334Z,7.81
2023-02-12T17:36:08.051Z,7.80
2023-02-12T17:38:34.408Z,7.79
2023-02-12T17:41:00.984Z,7.77
2023-02-12T17:43:27.398Z,7.76
2023-02-12T17:45:53.878Z,7.76
2023-02-12T17:48:22.619Z,7.76
2023-02-12T17:50:53.673Z,7.74
2023-02-12T17:53:20.019Z,7.72
2023-02-12T17:55:46.377Z,7.73
2023-02-12T17:58:12.755Z,7.73
2023-02-12T18:00:40.794Z,7.71
2023-02-12T18:03:07.140Z,7.71
2023-02-12T18:05:33.599Z,7.71
2023-02-12T18:08:02.191Z,7.69
2023-02-12T18:10:28.649Z,7.68
2023-02-12T18:12:55.051Z,7.68
2023-02-12T18:15:21.496Z,7.68
2023-02-12T18:17:47.868Z,7.67
2023-02-12T18:20:14.302Z,7.64
2023-02-12T18:22:40.722Z,7.62
2023-02-12T18:25:07.676Z,7.61
2023-02-12T18:27:34.199Z,7.61
2023-02-12T18:30:00.652Z,7.61
2023-02-12T18:32:27.038Z,7.63
2023-02-12T18:34:53.647Z,7.63
2023-02-12T18:37:19.986Z,7.64
2023-02-12T18:39:46.396Z,7.61
2023-02-12T18:42:12.851Z,7.60
2023-02-12T18:44:39.356Z,7.59
2023-02-12T18:47:05.705Z,7.59
2023-02-12T18:49:32.147Z,7.60
2023-02-12T18:51:58.526Z,7.58
2023-02-12T18:54:24.947Z,7.61
2023-02-12T18:56:52.201Z,7.59
2023-02-12T18:59:18.857Z,7.58
2023-02-12T19:01:46.356Z,7.53
2023-02-12T19:04:13.435Z,7.55
2023-02-12T19:06:42.506Z,7.55
2023-02-12T19:09:09.013Z,7.54
2023-02-12T19:11:35.634Z,7.53
2023-02-12T19:14:01.997Z,7.50
2023-02-12T19:16:28.480Z,7.50
2023-02-12T19:18:56.124Z,7.49
2023-02-12T19:21:22.631Z,7.48
2023-02-12T19:23:52.108Z,7.45
2023-02-12T19:26:18.492Z,7.46
2023-02-12T19:28:44.939Z,7.47
2023-02-12T19:31:17.529Z,7.45
2023-02-12T19:33:44.480Z,7.41
2023-02-12T19:36:12.224Z,7.42
2023-02-12T19:38:38.706Z,7.42
2023-02-12T19:41:06.311Z,7.43
2023-02-12T19:43:32.968Z,7.39
2023-02-12T19:46:03.594Z,7.40
2023-02-12T19:48:30.067Z,7.40
2023-02-12T19:50:56.812Z,7.39
2023-02-12T19:53:23.442Z,7.38
2023-02-12T19:55:49.929Z,7.39
2023-02-12T19:58:16.349Z,7.39
2023-02-12T20:00:42.708Z,7.34
2023-02-12T20:03:09.105Z,7.35
2023-02-12T20:05:41.928Z,7.33
2023-02-12T20:08:08.277Z,7.33
2023-02-12T20:10:34.665Z,7.30
2023-02-12T20:13:01.163Z,7.33
2023-02-12T20:15:27.514Z,7.32
2023-02-12T20:17:53.919Z,7.33
2023-02-12T20:20:20.281Z,7.35
2023-02-12T20:22:46.649Z,7.36
2023-02-12T20:25:13.201Z,7.33
2023-02-12T20:27:39.578Z,7.35
2023-02-12T20:30:06.547Z,7.35
2023-02-12T20:32:33.895Z,7.33
2023-02-12T20:35:00.258Z,7.30
2023-02-12T20:37:26.692Z,7.30
2023-02-12T20:39:53.070Z,7.33
2023-02-12T20:42:19.432Z,7.31
2023-02-12T20:44:45.847Z,7.30
2023-02-12T20:47:12.229Z,7.32
2023-02-12T20:49:38.639Z,7.31
2023-02-12T20:52:05.263Z,7.28
2023-02-12T20:54:31.676Z,7.30
2023-02-12T20:56:58.012Z,7.31
2023-02-12T20:59:24.438Z,7.29
2023-02-12T21:01:51.132Z,7.30
2023-02-12T21:04:18.386Z,7.27
2023-02-12T21:06:45.588Z,7.27
2023-02-12T21:09:12.944Z,7.27
2023-02-12T21:11:40.896Z,7.27
2023-02-12T21:14:21.268Z,7.26
2023-02-12T21:16:48.115Z,7.26
2023-02-12T21:19:14.513Z,7.26
2023-02-12T21:21:41.285Z,7.25
2023-02-12T21:24:08.803Z,7.23
2023-02-12T21:26:35.562Z,7.22
2023-02-12T21:29:02.260Z,7.24
2023-02-12T21:31:33.766Z,7.23
2023-02-12T21:34:00.769Z,7.24
2023-02-12T21:36:29.881Z,7.23
2023-02-12T21:38:56.446Z,7.20
2023-02-12T21:41:24.583Z,7.19
2023-02-12T21:43:53.304Z,7.18
2023-02-12T21:46:22.516Z,7.17
2023-02-12T21:48:49.167Z,7.17
2023-02-12T21:51:22.695Z,7.16
2023-02-12T21:53:50.407Z,7.18
2023-02-12T21:56:17.169Z,7.15
2023-02-12T21:58:43.746Z,7.15
2023-02-12T22:01:15.151Z,7.15
2023-02-12T22:03:41.736Z,7.15
2023-02-12T22:06:08.520Z,7.12
2023-02-12T22:08:35.284Z,7.11
2023-02-12T22:11:03.480Z,7.11
2023-02-12T22:13:30.218Z,7.09
2023-02-12T22:15:57.336Z,7.11
2023-02-12T22:18:23.704Z,7.10
2023-02-12T22:20:50.094Z,7.09
2023-02-12T22:23:16.693Z,7.08
2023-02-12T22:25:43.030Z,7.07
2023-02-12T22:28:09.404Z,7.06
2023-02-12T22:30:36.100Z,7.06
2023-02-12T22:33:02.510Z,7.05
2023-02-12T22:35:28.846Z,7.05
2023-02-12T22:37:55.246Z,7.07
2023-02-12T22:40:21.737Z,7.06
2023-02-12T22:42:48.107Z,7.05
2023-02-12T22:45:14.654Z,7.05
2023-02-12T22:47:41.035Z,7.03
2023-02-12T22:50:07.697Z,7.04
2023-02-12T22:52:34.244Z,7.02
2023-02-12T22:55:00.564Z,7.03
2023-02-12T22:57:26.982Z,7.04
2023-02-12T22:59:53.354Z,7.04
2023-02-12T23:02:19.898Z,7.03
2023-02-12T23:04:46.309Z,7.04
2023-02-12T23:07:12.863Z,7.03
2023-02-12T23:09:39.287Z,7.02
2023-02-12T23:12:10.867Z,7.02
2023-02-12T23:14:37.474Z,7.01
2023-02-12T23:17:04.172Z,7.01
2023-02-12T23:19:30.703Z,7.02
2023-02-12T23:21:57.291Z,7.02
2023-02-12T23:24:25.534Z,7.03
2023-02-12T23:26:53.235Z,7.01
2023-02-12T23:29:19.754Z,7.01
2023-02-12T23:31:46.202Z,6.99
2023-02-12T23:34:12.629Z,6.98
2023-02-12T23:36:39.214Z,6.97
2023-02-12T23:39:05.867Z,6.95
2023-02-12T23:41:32.317Z,6.96
2023-02-12T23:43:58.954Z,6.96
2023-02-12T23:46:25.394Z,6.96
2023-02-12T23:48:51.747Z,6.95
2023-02-12T23:51:18.270Z,6.95
2023-02-12T23:53:44.626Z,6.95
2023-02-12T23:56:11.036Z,6.98
2023-02-12T23:58:37.446Z,6.96
